Time;durP1;ratioP1;P1;durP2;ratioP2;P2;SDS_P1;SDS_P2;PMS_P1;PMS_P2;Temp;Humidity;BMP_temperature;BMP_pressure;BME280_temperature;BME280_humidity;BME280_pressure;Samples;Min_cycle;Max_cycle;Signal;HPM_P1;HPM_P2
2023/03/16 00:01:50;;;;;;;0.20;0.20;;;2.70;99.90;;;;;;4161339;28;20266;-62
2023/03/16 00:03:51;;;;;;;0.70;0.30;;;2.60;99.90;;;;;;4150057;28;20256;-61
2023/03/16 00:05:53;;;;;;;1.30;0.60;;;2.70;99.90;;;;;;4144723;28;20342;-62
2023/03/16 00:07:54;;;;;;;0.60;0.40;;;2.70;99.90;;;;;;4146757;28;20353;-64
2023/03/16 00:09:55;;;;;;;0.60;0.50;;;2.60;99.90;;;;;;4148320;28;20334;-62
2023/03/16 00:11:58;;;;;;;1.33;0.67;;;2.70;99.90;;;;;;4146913;28;20671;-62
2023/03/16 00:13:59;;;;;;;0.93;0.53;;;2.70;99.90;;;;;;4148240;28;20798;-62
2023/03/16 00:16:03;;;;;;;0.60;0.30;;;2.60;99.90;;;;;;4157203;28;20263;-62
2023/03/16 00:18:04;;;;;;;1.40;0.60;;;2.60;99.90;;;;;;4165007;28;20282;-61
2023/03/16 00:20:06;;;;;;;0.73;0.60;;;2.60;99.90;;;;;;4163308;28;20298;-62
2023/03/16 00:22:07;;;;;;;0.70;0.40;;;2.60;99.90;;;;;;4164200;28;20267;-62
2023/03/16 00:24:08;;;;;;;1.10;0.47;;;2.60;99.90;;;;;;4162416;28;20239;-61
2023/03/16 00:26:11;;;;;;;1.60;0.60;;;2.60;99.90;;;;;;4163997;28;20309;-63
2023/03/16 00:28:12;;;;;;;1.00;0.67;;;2.60;99.90;;;;;;4162194;28;20308;-62
2023/03/16 00:30:14;;;;;;;0.50;0.20;;;2.60;99.90;;;;;;4163464;28;20263;-63
2023/03/16 00:32:18;;;;;;;3.97;0.47;;;2.60;99.90;;;;;;4164143;28;20262;-62
2023/03/16 00:34:19;;;;;;;0.50;0.20;;;2.50;99.90;;;;;;4163240;28;20274;-61
2023/03/16 00:36:21;;;;;;;0.47;0.30;;;2.50;99.90;;;;;;4164374;28;20325;-62
2023/03/16 00:38:22;;;;;;;0.53;0.40;;;2.50;99.90;;;;;;4163159;28;20262;-62
2023/03/16 00:40:23;;;;;;;0.70;0.40;;;2.50;99.90;;;;;;4164326;28;20263;-63
2023/03/16 00:42:28;;;;;;;1.07;0.50;;;2.50;99.90;;;;;;4163111;28;20271;-63
2023/03/16 00:44:30;;;;;;;0.57;0.33;;;2.40;99.90;;;;;;4164360;28;20259;-63
2023/03/16 00:46:32;;;;;;;0.90;0.50;;;2.40;99.90;;;;;;4163266;28;20278;-63
2023/03/16 00:48:37;;;;;;;0.57;0.50;;;2.40;99.90;;;;;;4164306;28;20738;-64
2023/03/16 00:50:38;;;;;;;1.00;0.30;;;2.40;99.90;;;;;;4162699;28;20271;-62
2023/03/16 00:52:41;;;;;;;0.80;0.50;;;2.40;99.90;;;;;;4152383;28;20267;-62
2023/03/16 00:54:44;;;;;;;1.03;0.50;;;2.30;99.90;;;;;;4146643;28;20255;-64
2023/03/16 00:56:45;;;;;;;1.80;0.43;;;2.30;99.90;;;;;;4147165;28;20589;-63
2023/03/16 00:58:46;;;;;;;0.40;0.30;;;2.30;99.90;;;;;;4146525;28;20434;-63
2023/03/16 01:00:50;;;;;;;1.70;0.30;;;2.30;99.90;;;;;;4147166;28;20267;-62
2023/03/16 01:02:51;;;;;;;1.83;0.67;;;2.30;99.90;;;;;;4146941;28;20247;-62
2023/03/16 01:04:53;;;;;;;0.80;0.40;;;2.30;99.90;;;;;;4146862;28;20263;-63
2023/03/16 01:06:54;;;;;;;0.90;0.23;;;2.20;99.90;;;;;;4147002;28;20601;-68
2023/03/16 01:08:56;;;;;;;1.90;0.40;;;2.20;99.90;;;;;;4145966;28;20271;-63
2023/03/16 01:11:10;;;;;;;0.67;0.50;;;2.20;99.90;;;;;;4147522;28;20259;-62
2023/03/16 01:13:12;;;;;;;0.60;0.33;;;2.20;99.90;;;;;;4146228;28;20267;-62
2023/03/16 01:15:13;;;;;;;0.57;0.30;;;2.20;99.90;;;;;;4147476;28;20288;-63
2023/03/16 01:17:16;;;;;;;0.30;0.27;;;2.20;99.90;;;;;;4146062;28;20275;-65
2023/03/16 01:19:17;;;;;;;0.87;0.30;;;2.20;99.90;;;;;;4147335;28;20841;-63
2023/03/16 01:21:20;;;;;;;0.30;0.20;;;2.20;99.90;;;;;;4146173;28;20272;-62
2023/03/16 01:23:21;;;;;;;0.40;0.17;;;2.10;99.90;;;;;;4146875;28;20325;-67
2023/03/16 01:25:23;;;;;;;2.00;0.17;;;2.00;99.90;;;;;;4146109;28;20674;-62
2023/03/16 01:27:25;;;;;;;0.20;0.20;;;2.00;99.90;;;;;;4147057;28;20271;-61
2023/03/16 01:29:26;;;;;;;0.10;0.07;;;2.00;99.90;;;;;;4145989;28;20910;-61
2023/03/16 01:31:28;;;;;;;0.80;0.20;;;2.00;99.90;;;;;;4146917;28;20322;-61
2023/03/16 01:33:29;;;;;;;0.40;0.20;;;2.00;99.90;;;;;;4146040;28;20585;-62
2023/03/16 01:35:30;;;;;;;0.20;0.10;;;2.00;99.90;;;;;;4146701;28;20326;-66
2023/03/16 01:37:31;;;;;;;0.63;0.27;;;2.00;99.90;;;;;;4145988;28;20279;-63
2023/03/16 01:39:32;;;;;;;0.60;0.20;;;2.00;99.90;;;;;;4145771;28;20365;-65
2023/03/16 01:41:34;;;;;;;0.20;0.10;;;2.00;99.90;;;;;;4146184;28;20295;-62
2023/03/16 01:43:37;;;;;;;0.70;0.30;;;1.90;99.90;;;;;;4145752;28;20738;-62
2023/03/16 01:46:05;;;;;;;0.30;0.20;;;1.90;99.90;;;;;;4145184;28;20703;-62
2023/03/16 01:48:06;;;;;;;0.50;0.13;;;1.90;99.90;;;;;;4146323;28;20279;-63
2023/03/16 01:50:08;;;;;;;0.33;0.23;;;1.90;99.90;;;;;;4146741;28;20317;-62
2023/03/16 01:52:13;;;;;;;0.83;0.30;;;1.80;99.90;;;;;;4152827;28;20995;-62
2023/03/16 01:54:26;;;;;;;0.80;0.30;;;1.80;99.90;;;;;;4162949;28;20698;-63
2023/03/16 01:56:36;;;;;;;0.40;0.30;;;1.80;99.90;;;;;;4161956;28;20771;-61
2023/03/16 01:58:38;;;;;;;0.20;0.20;;;1.80;99.90;;;;;;4162806;28;20279;-63
2023/03/16 02:00:40;;;;;;;0.33;0.20;;;1.80;99.90;;;;;;4161925;28;20021;-61
2023/03/16 02:02:47;;;;;;;0.30;0.10;;;1.80;99.90;;;;;;4162596;28;20259;-61
2023/03/16 02:05:11;;;;;;;0.30;0.20;;;1.80;99.90;;;;;;4161823;28;20270;-61
2023/03/16 02:07:15;;;;;;;0.53;0.30;;;1.70;99.90;;;;;;4162596;28;20259;-62
2023/03/16 02:09:17;;;;;;;0.97;0.53;;;1.70;99.90;;;;;;4160735;28;20274;-64
2023/03/16 02:11:21;;;;;;;0.83;0.57;;;1.70;99.90;;;;;;4146060;28;20283;-63
2023/03/16 02:13:24;;;;;;;1.97;1.20;;;1.70;99.90;;;;;;4145350;28;20640;-60
2023/03/16 02:15:26;;;;;;;0.87;0.50;;;1.70;99.90;;;;;;4146569;28;20263;-66
2023/03/16 02:17:30;;;;;;;1.90;0.40;;;1.60;99.90;;;;;;4145353;28;20313;-61
2023/03/16 02:19:55;;;;;;;0.30;0.20;;;1.60;99.90;;;;;;4146932;28;20299;-61
2023/03/16 02:22:07;;;;;;;0.67;0.13;;;1.50;99.90;;;;;;4145311;28;20267;-62
2023/03/16 02:24:08;;;;;;;2.30;0.17;;;1.50;99.90;;;;;;4146484;28;20280;-61
2023/03/16 02:26:34;;;;;;;0.40;0.20;;;1.50;99.90;;;;;;4149732;28;20821;-62
2023/03/16 02:28:54;;;;;;;0.20;0.10;;;1.50;99.90;;;;;;4161956;28;20321;-62
2023/03/16 02:30:56;;;;;;;1.27;0.23;;;1.50;99.90;;;;;;4161244;28;20271;-64
2023/03/16 02:32:57;;;;;;;0.60;0.20;;;1.50;99.90;;;;;;4162456;28;20908;-61
2023/03/16 02:35:00;;;;;;;0.50;0.20;;;1.40;99.90;;;;;;4160925;28;20763;-61
2023/03/16 02:37:02;;;;;;;2.00;0.30;;;1.40;99.90;;;;;;4162590;28;20275;-61
2023/03/16 02:39:04;;;;;;;2.90;0.30;;;1.40;99.90;;;;;;4161268;28;20341;-61
2023/03/16 02:41:16;;;;;;;0.40;0.20;;;1.40;99.90;;;;;;4162453;28;20757;-61
2023/03/16 02:43:23;;;;;;;0.30;0.20;;;1.40;99.90;;;;;;4161261;28;20356;-62
2023/03/16 02:45:27;;;;;;;0.87;0.10;;;1.40;99.90;;;;;;4162406;28;20669;-60
2023/03/16 02:47:43;;;;;;;0.30;0.10;;;1.40;99.90;;;;;;4160825;28;20267;-64
2023/03/16 02:49:44;;;;;;;0.40;0.10;;;1.40;99.90;;;;;;4162309;28;20341;-62
2023/03/16 02:51:46;;;;;;;1.17;0.20;;;1.40;99.90;;;;;;4161168;28;20278;-61
2023/03/16 02:53:47;;;;;;;0.30;0.20;;;1.40;99.90;;;;;;4162417;28;20271;-60
2023/03/16 02:55:48;;;;;;;0.10;0.10;;;1.40;99.90;;;;;;4161107;28;20750;-65
2023/03/16 02:57:51;;;;;;;0.17;0.13;;;1.40;99.90;;;;;;4161536;28;20767;-61
2023/03/16 02:59:52;;;;;;;0.13;0.10;;;1.40;99.90;;;;;;4161272;28;20353;-62
2023/03/16 03:01:53;;;;;;;0.93;0.10;;;1.40;99.90;;;;;;4161580;28;20270;-66
2023/03/16 03:03:54;;;;;;;0.60;0.17;;;1.40;99.90;;;;;;4146710;28;20792;-64
2023/03/16 03:05:55;;;;;;;0.27;0.10;;;1.40;99.90;;;;;;4144775;28;20275;-62
2023/03/16 03:07:57;;;;;;;0.00;0.00;;;1.30;99.90;;;;;;4145504;28;20322;-63
2023/03/16 03:09:58;;;;;;;2.43;0.00;;;1.30;99.90;;;;;;4149943;28;20667;-61
2023/03/16 03:11:59;;;;;;;0.10;0.03;;;1.30;99.90;;;;;;4156185;28;20322;-63
2023/03/16 03:14:00;;;;;;;1.07;0.67;;;1.30;99.90;;;;;;4144374;28;20279;-64
2023/03/16 03:16:01;;;;;;;1.30;0.10;;;1.30;99.90;;;;;;4151168;28;21126;-61
2023/03/16 03:18:02;;;;;;;0.30;0.10;;;1.30;99.90;;;;;;4160675;28;20266;-61
2023/03/16 03:20:12;;;;;;;0.83;0.27;;;1.30;99.90;;;;;;4162114;28;20344;-62
2023/03/16 03:22:17;;;;;;;0.10;0.00;;;1.20;99.90;;;;;;4160627;28;20324;-63
2023/03/16 03:24:18;;;;;;;1.20;0.03;;;1.20;99.90;;;;;;4161833;28;20674;-61
2023/03/16 03:26:20;;;;;;;0.00;0.00;;;1.20;99.90;;;;;;4160125;28;20271;-62
2023/03/16 03:28:21;;;;;;;0.63;0.30;;;1.10;99.90;;;;;;4154721;28;20329;-63
2023/03/16 03:30:24;;;;;;;1.40;0.27;;;1.10;99.90;;;;;;4144366;28;20318;-62
2023/03/16 03:32:25;;;;;;;0.57;0.43;;;1.10;99.90;;;;;;4145075;28;20290;-62
2023/03/16 03:34:27;;;;;;;0.43;0.10;;;1.10;99.90;;;;;;4144521;28;20318;-63
2023/03/16 03:36:28;;;;;;;0.23;0.10;;;1.10;99.90;;;;;;4145005;28;20279;-68
2023/03/16 03:38:29;;;;;;;0.00;0.00;;;1.10;99.90;;;;;;4143806;28;20264;-63
2023/03/16 03:40:30;;;;;;;0.50;0.00;;;1.10;99.90;;;;;;4145612;28;20291;-62
2023/03/16 03:42:32;;;;;;;0.00;0.00;;;1.10;99.90;;;;;;4150391;28;20365;-62
2023/03/16 03:44:33;;;;;;;0.20;0.10;;;1.00;99.90;;;;;;4149643;28;20256;-64
2023/03/16 03:46:34;;;;;;;0.03;0.00;;;1.00;99.90;;;;;;4149344;28;20276;-62
2023/03/16 03:48:35;;;;;;;0.10;0.10;;;1.00;99.90;;;;;;4149786;28;20321;-62
2023/03/16 03:50:39;;;;;;;0.03;0.00;;;1.00;99.90;;;;;;4151083;28;20271;-61
2023/03/16 03:52:40;;;;;;;0.47;0.00;;;1.00;99.90;;;;;;4149604;28;20293;-62
2023/03/16 03:54:41;;;;;;;0.20;0.20;;;1.00;99.90;;;;;;4150786;28;20264;-68
2023/03/16 03:56:43;;;;;;;0.57;0.00;;;1.00;99.90;;;;;;4148080;28;20275;-62
2023/03/16 03:58:44;;;;;;;0.13;0.07;;;1.00;99.90;;;;;;4150583;28;20267;-63
2023/03/16 04:00:45;;;;;;;1.03;0.10;;;1.00;99.90;;;;;;4149584;28;20691;-62
2023/03/16 04:02:46;;;;;;;0.40;0.00;;;1.00;99.90;;;;;;4150404;28;20271;-64
2023/03/16 04:04:48;;;;;;;0.73;0.10;;;0.90;99.90;;;;;;4156843;28;20278;-62
2023/03/16 04:06:50;;;;;;;0.80;0.20;;;1.00;99.90;;;;;;4166539;28;20320;-63
2023/03/16 04:08:53;;;;;;;0.13;0.10;;;0.90;99.90;;;;;;4166325;28;20279;-67
2023/03/16 04:10:54;;;;;;;0.60;0.10;;;1.00;99.90;;;;;;4165877;28;20320;-62
2023/03/16 04:12:56;;;;;;;0.30;0.20;;;0.90;99.90;;;;;;4166153;28;20274;-63
2023/03/16 04:14:57;;;;;;;0.90;0.10;;;1.00;99.90;;;;;;4165647;28;20258;-62
2023/03/16 04:16:58;;;;;;;1.17;0.00;;;0.90;99.90;;;;;;4166718;28;20645;-63
2023/03/16 04:19:00;;;;;;;2.23;0.20;;;0.90;99.90;;;;;;4166109;28;20321;-64
2023/03/16 04:21:01;;;;;;;0.47;0.00;;;0.90;99.90;;;;;;4166103;28;20352;-64
2023/03/16 04:23:03;;;;;;;1.13;0.20;;;0.90;99.90;;;;;;4149404;28;20271;-62
2023/03/16 04:25:05;;;;;;;0.03;0.00;;;0.90;99.90;;;;;;4150617;28;20260;-62
2023/03/16 04:27:06;;;;;;;0.10;0.10;;;0.90;99.90;;;;;;4149337;28;20303;-62
2023/03/16 04:29:07;;;;;;;0.53;0.30;;;0.90;99.90;;;;;;4150478;28;20272;-63
2023/03/16 04:31:09;;;;;;;1.90;0.10;;;0.90;99.90;;;;;;4149288;28;20353;-63
2023/03/16 04:33:10;;;;;;;0.63;0.20;;;0.90;99.90;;;;;;4150885;28;20321;-64
2023/03/16 04:35:11;;;;;;;0.50;0.10;;;0.90;99.90;;;;;;4165557;28;20243;-62
2023/03/16 04:37:12;;;;;;;0.40;0.20;;;0.90;99.90;;;;;;4166321;28;20297;-62
2023/03/16 04:39:13;;;;;;;1.03;0.20;;;0.90;99.90;;;;;;4165883;28;20777;-62
2023/03/16 04:41:15;;;;;;;0.63;0.47;;;0.90;99.90;;;;;;4166090;28;20324;-61
2023/03/16 04:43:16;;;;;;;0.67;0.50;;;0.90;99.90;;;;;;4166243;28;20268;-61
2023/03/16 04:45:17;;;;;;;0.73;0.23;;;1.00;99.90;;;;;;4165752;28;20313;-61
2023/03/16 04:47:19;;;;;;;0.20;0.20;;;1.00;99.90;;;;;;4166094;28;20337;-61
2023/03/16 04:49:20;;;;;;;0.50;0.30;;;1.00;99.90;;;;;;4165708;28;20336;-61
2023/03/16 04:51:21;;;;;;;2.20;0.40;;;1.00;99.90;;;;;;4166633;28;20263;-62
2023/03/16 04:53:22;;;;;;;3.13;0.30;;;0.90;99.90;;;;;;4162439;28;20306;-62
2023/03/16 04:55:23;;;;;;;0.60;0.30;;;1.00;99.90;;;;;;4164034;28;20279;-62
2023/03/16 04:57:24;;;;;;;0.50;0.20;;;1.00;99.90;;;;;;4162534;28;20271;-62
2023/03/16 04:59:26;;;;;;;0.77;0.20;;;1.00;99.90;;;;;;4163866;28;20266;-63
2023/03/16 05:01:27;;;;;;;0.33;0.20;;;1.00;99.90;;;;;;4160541;28;20271;-62
2023/03/16 05:03:28;;;;;;;0.20;0.20;;;1.00;99.90;;;;;;4160348;28;20271;-67
2023/03/16 05:05:29;;;;;;;1.20;0.40;;;0.90;99.90;;;;;;4148493;28;20255;-62
2023/03/16 05:07:31;;;;;;;0.40;0.30;;;0.90;99.90;;;;;;4146950;28;20280;-62
2023/03/16 05:09:32;;;;;;;0.57;0.37;;;0.90;99.90;;;;;;4160298;28;20344;-61
2023/03/16 05:11:34;;;;;;;1.23;0.60;;;0.90;99.90;;;;;;4162891;28;20321;-60
2023/03/16 05:13:35;;;;;;;3.27;0.57;;;0.90;99.90;;;;;;4163034;28;20255;-61
2023/03/16 05:15:37;;;;;;;1.30;0.43;;;0.90;99.90;;;;;;4162362;28;20263;-63
2023/03/16 05:17:40;;;;;;;1.97;0.83;;;0.90;99.90;;;;;;4161862;28;20360;-61
2023/03/16 05:19:41;;;;;;;3.23;0.87;;;0.90;99.90;;;;;;4162404;28;20324;-60
2023/03/16 05:21:44;;;;;;;3.30;0.67;;;0.90;99.90;;;;;;4149166;28;20345;-61
2023/03/16 05:23:45;;;;;;;1.37;0.90;;;0.90;99.90;;;;;;4159840;28;20290;-61
2023/03/16 05:25:47;;;;;;;1.93;0.90;;;0.90;99.90;;;;;;4163151;28;20729;-61
2023/03/16 05:27:51;;;;;;;2.10;0.70;;;0.90;99.90;;;;;;4161276;28;20275;-69
2023/03/16 05:29:52;;;;;;;1.17;0.80;;;0.90;99.90;;;;;;4162977;28;20278;-60
2023/03/16 05:31:53;;;;;;;1.73;0.60;;;0.90;99.90;;;;;;4146302;28;20330;-61
2023/03/16 05:33:55;;;;;;;1.77;0.60;;;0.90;99.90;;;;;;4162380;28;20286;-61
2023/03/16 05:35:56;;;;;;;1.90;0.70;;;0.90;99.90;;;;;;4155944;28;20336;-66
2023/03/16 05:37:58;;;;;;;1.90;0.70;;;0.90;99.90;;;;;;4160336;28;20596;-62
2023/03/16 05:39:59;;;;;;;0.50;0.50;;;0.90;99.90;;;;;;4150329;28;20348;-69
2023/03/16 05:42:00;;;;;;;2.60;0.90;;;0.90;99.90;;;;;;4160499;28;20690;-61
2023/03/16 05:44:03;;;;;;;1.13;0.80;;;0.90;99.90;;;;;;4149725;28;20260;-60
2023/03/16 05:46:05;;;;;;;0.83;0.67;;;0.90;99.90;;;;;;4155825;28;20275;-69
2023/03/16 05:48:06;;;;;;;1.30;0.67;;;1.00;99.90;;;;;;4161026;28;20275;-65
2023/03/16 05:50:10;;;;;;;4.43;0.73;;;1.00;99.90;;;;;;4161946;28;20306;-61
2023/03/16 05:52:11;;;;;;;1.23;0.67;;;1.00;99.90;;;;;;4161777;28;20305;-60
2023/03/16 05:54:12;;;;;;;1.20;0.80;;;1.00;99.90;;;;;;4161795;28;21047;-60
2023/03/16 05:56:13;;;;;;;0.87;0.60;;;1.00;99.90;;;;;;4161939;28;20267;-59
2023/03/16 05:58:15;;;;;;;0.97;0.37;;;0.90;99.90;;;;;;4160331;28;20287;-63
2023/03/16 06:00:18;;;;;;;1.50;1.03;;;0.90;99.90;;;;;;4162359;28;20333;-62
2023/03/16 06:02:19;;;;;;;1.07;0.63;;;0.90;99.90;;;;;;4152356;28;20337;-61
2023/03/16 06:04:20;;;;;;;2.83;0.83;;;1.00;99.90;;;;;;4143655;28;20825;-61
2023/03/16 06:06:22;;;;;;;0.70;0.70;;;1.00;99.90;;;;;;4143893;28;20276;-61
2023/03/16 06:08:23;;;;;;;0.93;0.57;;;1.00;99.90;;;;;;4146526;28;20272;-62
2023/03/16 06:10:25;;;;;;;1.23;0.93;;;0.90;99.90;;;;;;4145059;28;20259;-62
2023/03/16 06:12:27;;;;;;;4.43;0.77;;;1.00;99.90;;;;;;4146272;28;20398;-68
2023/03/16 06:14:29;;;;;;;2.03;0.63;;;1.00;99.90;;;;;;4145218;28;20337;-66
2023/03/16 06:16:30;;;;;;;3.50;1.00;;;1.00;99.90;;;;;;4145668;28;20272;-68
2023/03/16 06:18:32;;;;;;;1.57;0.83;;;1.00;99.90;;;;;;4145807;28;20259;-62
2023/03/16 06:20:34;;;;;;;2.57;1.00;;;1.00;99.90;;;;;;4145810;28;20357;-62
2023/03/16 06:22:37;;;;;;;2.50;1.03;;;1.00;99.90;;;;;;4152783;28;20274;-62
2023/03/16 06:24:38;;;;;;;3.60;1.47;;;1.00;99.90;;;;;;4161276;28;20349;-60
2023/03/16 06:26:40;;;;;;;2.67;1.50;;;1.00;99.90;;;;;;4150941;28;20270;-62
2023/03/16 06:28:41;;;;;;;3.20;1.80;;;1.00;99.90;;;;;;4147376;28;20368;-62
2023/03/16 06:30:42;;;;;;;2.60;1.30;;;1.10;99.90;;;;;;4153213;28;20313;-60
2023/03/16 06:32:46;;;;;;;2.67;1.23;;;1.10;99.90;;;;;;4147054;28;20287;-62
2023/03/16 06:34:47;;;;;;;2.00;1.00;;;1.10;99.90;;;;;;4146346;28;20267;-63
2023/03/16 06:36:49;;;;;;;3.17;1.30;;;1.10;99.90;;;;;;4147124;28;20326;-61
2023/03/16 06:38:50;;;;;;;5.20;1.67;;;1.10;99.90;;;;;;4161821;28;20656;-60
2023/03/16 06:40:53;;;;;;;4.07;2.90;;;1.10;99.90;;;;;;4160515;28;20336;-60
2023/03/16 06:42:54;;;;;;;5.40;2.60;;;1.10;99.90;;;;;;4162296;28;20270;-60
2023/03/16 06:44:55;;;;;;;4.07;2.10;;;1.20;99.90;;;;;;4160766;28;20291;-61
2023/03/16 06:46:57;;;;;;;2.57;1.43;;;1.20;99.90;;;;;;4157816;28;20686;-61
2023/03/16 06:48:59;;;;;;;3.47;1.60;;;1.20;99.90;;;;;;4151991;28;20275;-60
2023/03/16 06:51:00;;;;;;;2.53;1.17;;;1.20;99.90;;;;;;4160045;28;20313;-60
2023/03/16 06:53:02;;;;;;;3.47;2.07;;;1.20;99.90;;;;;;4161899;28;20259;-63
2023/03/16 06:55:03;;;;;;;2.27;1.20;;;1.20;99.90;;;;;;4150692;28;20330;-61
2023/03/16 06:57:04;;;;;;;2.27;1.17;;;1.20;99.90;;;;;;4145148;28;20291;-60
2023/03/16 06:59:06;;;;;;;3.00;1.60;;;1.20;99.90;;;;;;4149588;28;20332;-61
2023/03/16 07:01:07;;;;;;;5.10;2.90;;;1.20;99.90;;;;;;4161832;28;20372;-61
2023/03/16 07:03:08;;;;;;;3.30;2.17;;;1.20;99.90;;;;;;4159120;28;20324;-60
2023/03/16 07:05:12;;;;;;;7.33;1.60;;;1.20;99.90;;;;;;4155100;28;20755;-61
2023/03/16 07:07:13;;;;;;;2.37;1.57;;;1.30;99.90;;;;;;4152643;28;20316;-62
2023/03/16 07:09:14;;;;;;;2.80;1.63;;;1.30;99.90;;;;;;4153130;28;20264;-63
2023/03/16 07:11:15;;;;;;;3.27;1.87;;;1.30;99.90;;;;;;4156870;28;20356;-59
2023/03/16 07:13:17;;;;;;;4.67;2.20;;;1.30;99.90;;;;;;4161620;28;20328;-61
2023/03/16 07:15:18;;;;;;;3.97;1.80;;;1.30;99.90;;;;;;4160298;28;20341;-61
2023/03/16 07:17:20;;;;;;;2.33;1.67;;;1.30;99.90;;;;;;4155279;28;20359;-69
2023/03/16 07:19:21;;;;;;;3.97;2.70;;;1.20;99.90;;;;;;4157061;28;20664;-64
2023/03/16 07:21:22;;;;;;;6.57;3.60;;;1.20;99.90;;;;;;4161400;28;20291;-63
2023/03/16 07:23:24;;;;;;;6.80;3.30;;;1.20;99.90;;;;;;4161276;28;20324;-68
2023/03/16 07:25:25;;;;;;;7.43;3.50;;;1.20;99.90;;;;;;4159250;28;20325;-61
2023/03/16 07:27:28;;;;;;;6.33;3.60;;;1.20;99.90;;;;;;4161004;28;20763;-60
2023/03/16 07:29:29;;;;;;;5.67;3.20;;;1.30;99.90;;;;;;4160056;28;20341;-66
2023/03/16 07:31:31;;;;;;;3.60;2.40;;;1.30;99.90;;;;;;4160752;28;20356;-61
2023/03/16 07:33:33;;;;;;;3.60;2.17;;;1.30;99.90;;;;;;4159078;28;20309;-62
2023/03/16 07:35:34;;;;;;;2.67;2.10;;;1.20;99.90;;;;;;4160667;28;20286;-61
2023/03/16 07:37:35;;;;;;;2.50;1.70;;;1.20;99.90;;;;;;4160654;28;20254;-67
2023/03/16 07:39:37;;;;;;;1.90;1.50;;;1.30;99.90;;;;;;4161154;28;21334;-62
2023/03/16 07:41:38;;;;;;;2.80;1.50;;;1.30;99.90;;;;;;4160208;28;20359;-66
2023/03/16 07:43:39;;;;;;;4.20;1.00;;;1.30;99.90;;;;;;4160978;28;20709;-69
2023/03/16 07:45:40;;;;;;;2.37;1.63;;;1.30;99.90;;;;;;4160253;28;20275;-61
2023/03/16 07:47:41;;;;;;;1.80;0.90;;;1.30;99.90;;;;;;4160796;28;20279;-61
2023/03/16 07:49:43;;;;;;;3.13;1.13;;;1.30;99.90;;;;;;4160563;28;20328;-67
2023/03/16 07:51:44;;;;;;;2.07;0.77;;;1.40;99.90;;;;;;4161260;28;20255;-63
2023/03/16 07:53:45;;;;;;;2.27;1.37;;;1.40;99.90;;;;;;4159826;28;20282;-61
2023/03/16 07:55:47;;;;;;;1.63;0.60;;;1.40;99.90;;;;;;4160411;28;21725;-68
2023/03/16 07:57:48;;;;;;;2.40;1.10;;;1.40;99.90;;;;;;4160319;28;20332;-61
2023/03/16 07:59:50;;;;;;;1.60;0.77;;;1.50;99.90;;;;;;4158620;28;20278;-60
2023/03/16 08:01:52;;;;;;;3.37;1.27;;;1.50;99.90;;;;;;4160553;28;20298;-66
2023/03/16 08:03:53;;;;;;;2.10;0.90;;;1.40;99.90;;;;;;4159993;28;20344;-67
2023/03/16 08:05:54;;;;;;;1.77;0.70;;;1.40;99.90;;;;;;4161498;28;20270;-67
2023/03/16 08:07:56;;;;;;;6.70;4.33;;;1.40;99.90;;;;;;4160006;28;20320;-59
2023/03/16 08:09:57;;;;;;;1.20;1.07;;;1.40;99.90;;;;;;4161180;28;20723;-60
2023/03/16 08:11:58;;;;;;;0.67;0.47;;;1.40;99.90;;;;;;4160140;28;20686;-59
2023/03/16 08:13:59;;;;;;;1.57;0.77;;;1.40;99.90;;;;;;4161551;28;20325;-63
2023/03/16 08:16:00;;;;;;;1.63;0.73;;;1.40;99.90;;;;;;4159429;28;20317;-61
2023/03/16 08:18:01;;;;;;;1.03;0.50;;;1.40;99.90;;;;;;4161000;28;20274;-60
2023/03/16 08:20:13;;;;;;;3.27;1.27;;;1.40;99.90;;;;;;4159159;28;20320;-60
2023/03/16 08:22:15;;;;;;;2.03;1.20;;;1.50;99.90;;;;;;4157152;28;20279;-61
2023/03/16 08:24:16;;;;;;;2.13;1.20;;;1.50;99.90;;;;;;4160026;28;20267;-61
2023/03/16 08:26:19;;;;;;;2.13;0.90;;;1.50;99.90;;;;;;4160177;28;20799;-62
2023/03/16 08:28:21;;;;;;;4.43;3.17;;;1.60;99.90;;;;;;4158185;28;20279;-60
2023/03/16 08:30:22;;;;;;;6.77;3.73;;;1.60;99.90;;;;;;4163564;28;20317;-61
2023/03/16 08:32:23;;;;;;;12.17;5.90;;;1.70;99.90;;;;;;4163923;28;20297;-62
2023/03/16 08:34:25;;;;;;;21.37;10.53;;;1.70;99.90;;;;;;4162772;28;20290;-59
2023/03/16 08:36:29;;;;;;;5.97;3.70;;;1.70;99.90;;;;;;4164112;28;20263;-59
2023/03/16 08:38:31;;;;;;;3.40;2.10;;;1.80;99.90;;;;;;4157728;28;20271;-60
2023/03/16 08:40:33;;;;;;;2.17;1.50;;;1.80;99.90;;;;;;4163412;28;20332;-70
2023/03/16 08:42:35;;;;;;;2.47;1.80;;;1.90;99.90;;;;;;4162778;28;20338;-62
2023/03/16 08:44:36;;;;;;;2.60;2.40;;;1.90;99.90;;;;;;4163812;28;20630;-61
2023/03/16 08:46:38;;;;;;;1.77;0.80;;;2.00;99.90;;;;;;4162431;28;20286;-66
2023/03/16 08:48:40;;;;;;;1.87;1.47;;;2.10;99.90;;;;;;4163572;28;20341;-60
2023/03/16 08:50:42;;;;;;;2.47;1.87;;;2.10;99.90;;;;;;4153692;28;20338;-65
2023/03/16 08:52:44;;;;;;;1.37;0.70;;;2.20;99.90;;;;;;4147666;28;20271;-69
2023/03/16 08:54:45;;;;;;;1.37;0.60;;;2.20;99.90;;;;;;4156247;28;20646;-58
2023/03/16 08:56:46;;;;;;;2.40;1.37;;;2.20;99.90;;;;;;4162704;28;20310;-60
2023/03/16 08:58:47;;;;;;;2.60;1.13;;;2.20;99.90;;;;;;4161994;28;20685;-60
2023/03/16 09:00:48;;;;;;;2.23;1.40;;;2.20;99.90;;;;;;4162248;28;20820;-61
2023/03/16 09:02:49;;;;;;;2.77;2.20;;;2.20;99.90;;;;;;4146864;28;20275;-61
2023/03/16 09:04:51;;;;;;;3.80;1.77;;;2.20;99.90;;;;;;4146301;28;20690;-60
2023/03/16 09:06:52;;;;;;;1.63;1.40;;;2.20;99.90;;;;;;4154793;28;20309;-60
2023/03/16 09:08:55;;;;;;;2.50;1.73;;;2.30;99.90;;;;;;4149370;28;20275;-61
2023/03/16 09:11:04;;;;;;;2.67;0.97;;;2.30;99.90;;;;;;4147125;28;20283;-60
2023/03/16 09:13:05;;;;;;;3.50;1.50;;;2.30;99.90;;;;;;4145602;28;20283;-62
2023/03/16 09:15:09;;;;;;;5.03;1.80;;;2.30;99.90;;;;;;4153773;28;20666;-60
2023/03/16 09:17:10;;;;;;;0.70;0.67;;;2.30;99.90;;;;;;4157291;28;20766;-61
2023/03/16 09:19:12;;;;;;;1.80;0.70;;;2.30;99.90;;;;;;4146945;28;20346;-60
2023/03/16 09:21:13;;;;;;;2.27;0.70;;;2.30;99.90;;;;;;4146136;28;20275;-61
2023/03/16 09:23:14;;;;;;;2.37;0.60;;;2.30;99.90;;;;;;4156556;28;20404;-61
2023/03/16 09:25:16;;;;;;;1.27;0.67;;;2.30;99.90;;;;;;4161805;28;20294;-61
2023/03/16 09:27:17;;;;;;;0.90;0.60;;;2.30;99.90;;;;;;4163281;28;20329;-63
2023/03/16 09:29:18;;;;;;;1.27;1.17;;;2.40;99.90;;;;;;4160954;28;20279;-60
2023/03/16 09:31:20;;;;;;;1.40;0.80;;;2.40;99.90;;;;;;4162928;28;20557;-62
2023/03/16 09:33:23;;;;;;;1.87;0.97;;;2.40;99.90;;;;;;4162632;28;20275;-62
2023/03/16 09:35:25;;;;;;;2.23;1.33;;;2.40;99.90;;;;;;4162955;28;20337;-60
2023/03/16 09:37:26;;;;;;;2.60;1.10;;;2.40;99.90;;;;;;4162575;28;20317;-61
2023/03/16 09:39:27;;;;;;;1.53;0.97;;;2.40;99.90;;;;;;4162020;28;20777;-64
2023/03/16 09:41:47;;;;;;;2.33;0.93;;;2.50;99.90;;;;;;4162925;28;21140;-60
2023/03/16 09:43:56;;;;;;;1.85;1.20;;;2.50;99.90;;;;;;4150934;28;20296;-58
2023/03/16 09:46:27;;;;;;;1.53;0.93;;;2.50;99.90;;;;;;4162092;28;20072;-59
2023/03/16 09:48:31;;;;;;;1.38;1.17;;;2.50;99.90;;;;;;4145717;28;20326;-63
2023/03/16 09:50:37;;;;;;;1.30;1.10;;;2.50;99.90;;;;;;4146167;28;20433;-60
2023/03/16 09:53:33;;;;;;;1.63;1.10;;;2.50;99.90;;;;;;4146164;28;20268;-60
2023/03/16 09:55:37;;;;;;;1.80;1.37;;;2.50;99.90;;;;;;4095032;29;20345;-60
2023/03/16 09:57:43;;;;;;;5.40;1.20;;;2.50;99.90;;;;;;4096474;28;21147;-61
2023/03/16 09:59:44;;;;;;;2.40;1.20;;;2.50;99.90;;;;;;4104152;28;20309;-60
2023/03/16 10:02:11;;;;;;;3.00;1.40;;;2.50;99.90;;;;;;4161147;28;20286;-61
2023/03/16 10:04:39;;;;;;;4.87;2.30;;;2.50;99.90;;;;;;4161883;28;20305;-61
2023/03/16 10:06:54;;;;;;;3.23;1.40;;;2.50;99.90;;;;;;4148747;28;20267;-61
2023/03/16 10:09:29;;;;;;;2.83;1.40;;;2.50;99.90;;;;;;4145313;28;20271;-60
2023/03/16 10:11:32;;;;;;;3.40;1.90;;;2.40;99.90;;;;;;4151888;28;20674;-61
2023/03/16 10:13:46;;;;;;;3.00;1.53;;;2.40;99.90;;;;;;4157206;28;20334;-60
2023/03/16 10:15:49;;;;;;;3.53;2.17;;;2.50;99.90;;;;;;4159817;28;20275;-63
2023/03/16 10:18:06;;;;;;;5.27;3.03;;;2.50;99.90;;;;;;4158546;28;20275;-61
2023/03/16 10:20:16;;;;;;;2.60;1.77;;;2.50;99.90;;;;;;4162548;28;20271;-61
2023/03/16 10:22:17;;;;;;;3.93;2.30;;;2.60;99.90;;;;;;4161691;28;20298;-61
2023/03/16 10:24:56;;;;;;;2.00;1.80;;;2.60;99.90;;;;;;4162476;28;20259;-63
2023/03/16 10:26:59;;;;;;;2.53;1.50;;;2.60;99.90;;;;;;4138904;28;20670;-62
2023/03/16 10:29:00;;;;;;;3.90;2.80;;;2.70;99.90;;;;;;4154732;28;20780;-60
2023/03/16 10:31:02;;;;;;;3.90;2.73;;;2.70;99.90;;;;;;4161436;28;20821;-62
2023/03/16 10:33:18;;;;;;;4.67;2.13;;;2.70;99.90;;;;;;4162111;28;20274;-60
2023/03/16 10:35:38;;;;;;;3.07;1.70;;;2.70;99.90;;;;;;4144881;28;20264;-60
2023/03/16 10:37:39;;;;;;;5.37;2.03;;;2.70;99.90;;;;;;4145930;28;20326;-60
2023/03/16 10:39:41;;;;;;;3.43;1.80;;;2.70;99.90;;;;;;4144678;28;20272;-60
2023/03/16 10:41:45;;;;;;;4.00;2.40;;;2.70;99.90;;;;;;4146202;28;20291;-60
2023/03/16 10:43:57;;;;;;;2.50;2.00;;;2.70;99.90;;;;;;4144647;28;20310;-60
2023/03/16 10:46:01;;;;;;;4.67;2.17;;;2.70;99.90;;;;;;4155585;28;20297;-60
2023/03/16 10:48:13;;;;;;;3.67;2.40;;;2.70;99.90;;;;;;4160621;28;21127;-65
2023/03/16 10:50:15;;;;;;;3.40;1.80;;;2.70;99.90;;;;;;4161045;28;20258;-63
2023/03/16 10:52:43;;;;;;;4.07;2.13;;;2.70;99.90;;;;;;4156764;28;20287;-64